Time;durP1;ratioP1;P1;durP2;ratioP2;P2;SDS_P1;SDS_P2;PMS_P1;PMS_P2;Temp;Humidity;BMP_temperature;BMP_pressure;BME280_temperature;BME280_humidity;BME280_pressure;Samples;Min_cycle;Max_cycle;Signal;HPM_P1;HPM_P2
2023/03/25 00:01:32;;;;;;;6.57;1.90;;;9.70;99.90;;;;;;5068913;28;20048;-82
2023/03/25 00:03:59;;;;;;;6.63;1.77;;;9.70;99.90;;;;;;5086947;28;20414;-83
2023/03/25 00:06:27;;;;;;;7.93;1.83;;;9.70;99.90;;;;;;5071135;28;20125;-82
2023/03/25 00:08:53;;;;;;;7.28;1.75;;;10.00;99.90;;;;;;5069173;28;20048;-83
2023/03/25 00:11:19;;;;;;;6.05;1.58;;;9.70;99.90;;;;;;5069179;28;20044;-83
2023/03/25 00:13:46;;;;;;;6.43;1.60;;;9.80;99.90;;;;;;5069456;28;20076;-83
2023/03/25 00:16:12;;;;;;;8.85;2.25;;;9.80;99.90;;;;;;5068312;28;20059;-83
2023/03/25 00:18:38;;;;;;;8.07;1.75;;;9.80;99.90;;;;;;5053750;28;20044;-83
2023/03/25 00:21:09;;;;;;;6.90;1.65;;;9.80;99.90;;;;;;5069599;28;20063;-83
2023/03/25 00:23:35;;;;;;;9.15;1.95;;;9.80;99.90;;;;;;5066645;28;20054;-83
2023/03/25 00:26:02;;;;;;;4.55;1.60;;;10.00;99.90;;;;;;5068710;28;20079;-82
2023/03/25 00:28:30;;;;;;;9.05;1.80;;;9.80;99.90;;;;;;5069039;28;20059;-83
2023/03/25 00:31:05;;;;;;;9.02;1.90;;;10.20;99.90;;;;;;5088674;28;20051;-83
2023/03/25 00:33:32;;;;;;;5.88;1.70;;;9.80;99.90;;;;;;5085828;28;20572;-83
2023/03/25 00:35:58;;;;;;;9.80;2.50;;;9.80;99.90;;;;;;5067814;28;20098;-83
2023/03/25 00:38:33;;;;;;;8.48;2.00;;;9.70;99.90;;;;;;5068900;28;20410;-83
2023/03/25 00:41:16;;;;;;;11.02;2.15;;;9.70;99.90;;;;;;5068872;28;20387;-83
2023/03/25 00:43:42;;;;;;;;;;;9.70;99.90;;;;;;5087611;28;20367;-83
2023/03/25 00:46:07;;;;;;;9.88;1.98;;;9.70;99.90;;;;;;5068254;28;19920;-83
2023/03/25 00:48:33;;;;;;;8.25;1.83;;;9.70;99.90;;;;;;5052838;28;20428;-83
2023/03/25 00:51:05;;;;;;;6.45;1.85;;;9.60;99.90;;;;;;5062468;28;20417;-83
2023/03/25 00:53:31;;;;;;;;;;;9.50;99.90;;;;;;5069402;28;20079;-84
2023/03/25 00:55:57;;;;;;;4.93;1.63;;;9.50;99.90;;;;;;5069059;28;19924;-84
2023/03/25 00:58:23;;;;;;;7.68;1.98;;;9.40;99.90;;;;;;5068013;28;20048;-84
2023/03/25 01:00:48;;;;;;;5.07;2.20;;;9.40;99.90;;;;;;5069487;28;20047;-84
2023/03/25 01:03:14;;;;;;;6.45;2.13;;;9.20;99.90;;;;;;5052521;28;20082;-85
2023/03/25 01:05:40;;;;;;;5.05;2.22;;;9.20;99.90;;;;;;5051035;28;20150;-85
2023/03/25 01:08:07;;;;;;;6.00;2.38;;;9.10;99.90;;;;;;5068876;28;20121;-85
2023/03/25 01:10:35;;;;;;;4.55;2.65;;;9.10;99.90;;;;;;5068681;28;20036;-85
2023/03/25 01:13:01;;;;;;;6.05;2.83;;;9.10;99.90;;;;;;5086660;28;20048;-85
2023/03/25 01:15:27;;;;;;;11.82;3.10;;;9.00;99.90;;;;;;5087058;28;20044;-85
2023/03/25 01:17:52;;;;;;;6.45;2.83;;;9.00;99.90;;;;;;5050548;28;20151;-85
2023/03/25 01:20:18;;;;;;;8.60;3.08;;;9.00;99.90;;;;;;5068278;28;20036;-85
2023/03/25 01:22:43;;;;;;;8.32;3.10;;;8.90;99.90;;;;;;5054487;28;20051;-85
2023/03/25 01:25:09;;;;;;;5.57;3.08;;;8.90;99.90;;;;;;5067472;28;20052;-85
2023/03/25 01:27:35;;;;;;;7.97;3.70;;;8.90;99.90;;;;;;5067150;28;20051;-85
2023/03/25 01:30:00;;;;;;;6.18;2.88;;;8.90;99.90;;;;;;5087892;28;20040;-85
2023/03/25 01:32:27;;;;;;;5.95;3.13;;;8.80;99.90;;;;;;5068111;28;20078;-85
2023/03/25 01:34:53;;;;;;;7.78;3.20;;;8.80;99.90;;;;;;5069829;28;20533;-85
2023/03/25 01:37:19;;;;;;;9.32;3.10;;;8.80;99.90;;;;;;5069187;28;20136;-86
2023/03/25 01:39:45;;;;;;;9.30;3.17;;;8.80;99.90;;;;;;5068850;28;20138;-85
2023/03/25 01:42:11;;;;;;;8.90;3.28;;;8.80;99.90;;;;;;5085622;28;20119;-86
2023/03/25 01:44:37;;;;;;;13.68;2.92;;;9.20;99.90;;;;;;5052095;28;20051;-85
2023/03/25 01:47:05;;;;;;;9.88;3.00;;;9.20;99.90;;;;;;5084896;28;20662;-85
2023/03/25 01:49:39;;;;;;;10.60;2.20;;;8.80;99.90;;;;;;5068916;28;20089;-85
2023/03/25 01:52:16;;;;;;;8.43;2.40;;;8.80;99.90;;;;;;5051672;28;20085;-86
2023/03/25 01:54:42;;;;;;;8.45;2.63;;;8.80;99.90;;;;;;5067495;28;20052;-85
2023/03/25 01:57:11;;;;;;;9.05;2.25;;;8.70;99.90;;;;;;5087688;28;20437;-86
2023/03/25 01:59:37;;;;;;;7.28;2.20;;;9.10;99.90;;;;;;5068857;28;20502;-86
2023/03/25 02:02:08;;;;;;;6.50;2.40;;;9.10;99.90;;;;;;5086072;28;20032;-86
2023/03/25 02:04:42;;;;;;;7.15;2.58;;;8.60;99.90;;;;;;5067713;28;20122;-86
2023/03/25 02:07:09;;;;;;;14.93;3.47;;;8.70;99.90;;;;;;5051508;28;20051;-86
2023/03/25 02:09:36;;;;;;;12.95;2.95;;;8.60;99.90;;;;;;5068293;28;20073;-86
2023/03/25 02:12:01;;;;;;;7.72;2.22;;;8.60;99.90;;;;;;5053148;28;20051;-86
2023/03/25 02:14:37;;;;;;;8.50;2.70;;;9.20;99.90;;;;;;5086873;28;20028;-86
2023/03/25 02:17:22;;;;;;;12.05;2.95;;;8.50;99.90;;;;;;5052108;28;20364;-86
2023/03/25 02:20:08;;;;;;;13.52;2.65;;;8.50;99.90;;;;;;5068992;28;20468;-86
2023/03/25 02:22:48;;;;;;;9.63;2.47;;;8.50;99.90;;;;;;5008340;28;20051;-86
2023/03/25 02:25:20;;;;;;;8.50;2.72;;;8.40;99.90;;;;;;5052129;28;20044;-87
2023/03/25 02:28:03;;;;;;;7.10;2.28;;;8.50;99.90;;;;;;5068299;28;20494;-87
2023/03/25 02:30:37;;;;;;;13.20;3.05;;;8.40;99.90;;;;;;5068677;28;20058;-86
2023/03/25 02:33:10;;;;;;;10.07;2.55;;;8.40;99.90;;;;;;5049549;28;20036;-86
2023/03/25 02:35:38;;;;;;;;;;;8.40;99.90;;;;;;5051810;28;20513;-86
2023/03/25 02:38:07;;;;;;;8.88;2.45;;;8.30;99.90;;;;;;5067217;28;20379;-87
2023/03/25 02:41:03;;;;;;;10.20;2.80;;;7.70;99.90;;;;;;5068197;28;20055;-86
2023/03/25 02:43:55;;;;;;;9.63;3.25;;;8.30;99.90;;;;;;5064453;28;20036;-85
2023/03/25 02:46:23;;;;;;;13.45;3.38;;;8.30;99.90;;;;;;5046524;28;20123;-86
2023/03/25 02:49:15;;;;;;;16.13;3.05;;;8.60;99.90;;;;;;5089099;28;20131;-86
2023/03/25 02:51:48;;;;;;;13.02;3.50;;;8.30;99.90;;;;;;5066800;28;20032;-86
2023/03/25 02:54:15;;;;;;;8.70;3.22;;;8.30;99.90;;;;;;5070198;28;20505;-86
2023/03/25 02:56:46;;;;;;;11.32;3.05;;;8.30;99.90;;;;;;5054658;28;20047;-86
2023/03/25 02:59:13;;;;;;;10.25;2.85;;;8.30;99.90;;;;;;5069344;28;20028;-86
2023/03/25 03:01:40;;;;;;;14.40;3.20;;;8.30;99.90;;;;;;5088896;28;20058;-86
2023/03/25 03:04:06;;;;;;;13.00;3.05;;;8.30;99.90;;;;;;5071122;28;20040;-86
2023/03/25 03:06:40;;;;;;;13.23;3.50;;;8.30;99.90;;;;;;5070878;28;20512;-86
2023/03/25 03:09:16;;;;;;;10.27;2.72;;;8.30;99.90;;;;;;5054925;28;20500;-86
2023/03/25 03:12:07;;;;;;;11.50;2.75;;;8.30;99.90;;;;;;5070507;28;20044;-86
2023/03/25 03:15:10;;;;;;;9.85;2.65;;;8.30;99.90;;;;;;5045163;28;20371;-85
2023/03/25 03:17:48;;;;;;;;;;;8.30;99.90;;;;;;5072164;28;20044;-86
2023/03/25 03:20:31;;;;;;;14.80;3.50;;;8.40;99.90;;;;;;5071549;28;19927;-87
2023/03/25 03:23:09;;;;;;;16.23;2.70;;;8.30;99.90;;;;;;5069061;28;20051;-86
2023/03/25 03:25:50;;;;;;;15.02;3.38;;;8.40;99.90;;;;;;5070962;28;20043;-86
2023/03/25 03:28:26;;;;;;;13.98;3.35;;;8.90;99.90;;;;;;5052929;28;20089;-86
2023/03/25 03:31:05;;;;;;;10.02;2.88;;;8.40;99.90;;;;;;5071447;28;20127;-85
2023/03/25 03:33:59;;;;;;;12.30;3.47;;;8.40;99.90;;;;;;5070880;28;20040;-86
2023/03/25 03:36:30;;;;;;;10.52;2.63;;;8.40;99.90;;;;;;5069836;28;20501;-86
2023/03/25 03:39:04;;;;;;;9.15;3.17;;;8.70;99.90;;;;;;5044862;28;20167;-86
2023/03/25 03:41:34;;;;;;;14.88;3.42;;;9.10;99.90;;;;;;5071113;28;20231;-86
2023/03/25 03:44:14;;;;;;;12.68;3.05;;;8.40;99.90;;;;;;5061135;28;20401;-86
2023/03/25 03:47:10;;;;;;;7.47;2.55;;;8.40;99.90;;;;;;5054701;28;20048;-86
2023/03/25 03:49:41;;;;;;;7.80;2.50;;;8.40;99.90;;;;;;5070548;28;20474;-87
2023/03/25 03:52:33;;;;;;;11.73;2.88;;;8.40;99.90;;;;;;5043595;28;20120;-86
2023/03/25 03:55:17;;;;;;;7.95;2.33;;;8.40;99.90;;;;;;5043920;28;20139;-86
2023/03/25 03:58:14;;;;;;;11.30;2.38;;;8.40;99.90;;;;;;5052007;28;20075;-86
2023/03/25 04:01:14;;;;;;;10.27;2.40;;;8.40;99.90;;;;;;5049054;28;20135;-86
2023/03/25 04:03:52;;;;;;;14.45;2.42;;;8.40;99.90;;;;;;5056463;28;20147;-86
2023/03/25 04:06:23;;;;;;;9.80;2.67;;;8.40;99.90;;;;;;5053216;28;20134;-86
2023/03/25 04:08:59;;;;;;;11.93;2.80;;;8.40;99.90;;;;;;5068611;28;20043;-85
2023/03/25 04:11:43;;;;;;;12.18;3.00;;;8.40;99.90;;;;;;5067614;28;20040;-87
2023/03/25 04:14:11;;;;;;;9.45;2.72;;;8.40;99.90;;;;;;5085817;28;20396;-87
2023/03/25 04:16:37;;;;;;;11.10;3.13;;;8.40;99.90;;;;;;5055003;28;20119;-86
2023/03/25 04:19:04;;;;;;;11.30;2.78;;;8.40;99.90;;;;;;5069583;28;20131;-86
2023/03/25 04:21:31;;;;;;;9.10;2.80;;;8.40;99.90;;;;;;5069967;28;20051;-87
2023/03/25 04:24:00;;;;;;;9.43;2.45;;;8.40;99.90;;;;;;5069778;28;20494;-86
2023/03/25 04:26:28;;;;;;;8.07;2.78;;;8.40;99.90;;;;;;5069214;28;20151;-87
2023/03/25 04:28:58;;;;;;;10.80;3.03;;;8.40;99.90;;;;;;5069839;28;20044;-87
2023/03/25 04:31:24;;;;;;;12.52;2.85;;;8.40;99.90;;;;;;5052613;28;20055;-87
2023/03/25 04:33:50;;;;;;;12.95;3.30;;;8.40;99.90;;;;;;5068728;28;20418;-86
2023/03/25 04:36:16;;;;;;;7.75;2.83;;;8.40;99.90;;;;;;5065895;28;20044;-87
2023/03/25 04:38:46;;;;;;;8.80;2.42;;;8.80;99.90;;;;;;5065705;28;20125;-87
2023/03/25 04:41:12;;;;;;;11.15;3.47;;;8.30;99.90;;;;;;5066591;28;20048;-86
2023/03/25 04:43:38;;;;;;;7.50;2.50;;;8.30;99.90;;;;;;5065741;28;20056;-87
2023/03/25 04:46:05;;;;;;;6.70;2.60;;;8.80;99.90;;;;;;5066486;28;20105;-86
2023/03/25 04:48:33;;;;;;;14.32;3.17;;;8.30;99.90;;;;;;5048911;28;20040;-87
2023/03/25 04:51:02;;;;;;;8.43;3.05;;;8.30;99.90;;;;;;5067714;28;20533;-87
2023/03/25 04:53:28;;;;;;;8.40;2.65;;;8.30;99.90;;;;;;5066963;28;20071;-87
2023/03/25 04:55:55;;;;;;;10.38;2.92;;;8.30;99.90;;;;;;5067874;28;20147;-87
2023/03/25 04:58:21;;;;;;;12.18;3.20;;;8.30;99.90;;;;;;5065187;28;20515;-87
2023/03/25 05:00:51;;;;;;;10.50;3.33;;;8.30;99.90;;;;;;5064511;28;22010;-86
2023/03/25 05:03:23;;;;;;;8.63;2.92;;;8.40;99.90;;;;;;5066731;28;20055;-87
2023/03/25 05:05:52;;;;;;;9.50;2.93;;;8.20;99.90;;;;;;5066985;28;20049;-87
2023/03/25 05:08:20;;;;;;;11.13;2.80;;;8.20;99.90;;;;;;5065408;28;20090;-86
2023/03/25 05:10:46;;;;;;;11.15;2.83;;;8.30;99.90;;;;;;5068338;28;20059;-87
2023/03/25 05:13:12;;;;;;;13.27;3.50;;;8.30;99.90;;;;;;5065886;28;20393;-88
2023/03/25 05:15:38;;;;;;;11.40;3.35;;;8.20;99.90;;;;;;5067413;28;20190;-87
2023/03/25 05:18:14;;;;;;;9.00;3.00;;;8.20;99.90;;;;;;5065370;28;20127;-86
2023/03/25 05:20:43;;;;;;;15.73;3.03;;;8.60;99.90;;;;;;5068133;28;20127;-86
2023/03/25 05:23:11;;;;;;;10.82;2.80;;;8.20;99.90;;;;;;5067152;28;20051;-87
2023/03/25 05:25:41;;;;;;;9.80;3.13;;;8.20;99.90;;;;;;5065738;28;20086;-87
2023/03/25 05:28:13;;;;;;;10.20;3.08;;;9.10;99.90;;;;;;5063610;28;20047;-86
2023/03/25 05:30:40;;;;;;;12.70;3.30;;;8.20;99.90;;;;;;5065541;28;20159;-87
2023/03/25 05:33:09;;;;;;;12.07;3.47;;;8.20;99.90;;;;;;5063886;28;20056;-87
2023/03/25 05:35:35;;;;;;;7.93;3.22;;;8.20;99.90;;;;;;5065656;28;20063;-87
2023/03/25 05:38:04;;;;;;;12.35;3.40;;;8.20;99.90;;;;;;5065259;28;20376;-87
2023/03/25 05:40:34;;;;;;;14.65;3.80;;;8.20;99.90;;;;;;5050588;28;20045;-87
2023/03/25 05:43:02;;;;;;;10.77;3.35;;;8.20;99.90;;;;;;5047552;28;20485;-87
2023/03/25 05:45:27;;;;;;;10.70;2.88;;;8.20;99.90;;;;;;5048746;28;20053;-87
2023/03/25 05:47:53;;;;;;;8.35;3.30;;;8.20;99.90;;;;;;5065097;28;20057;-87
2023/03/25 05:50:20;;;;;;;8.82;2.80;;;8.20;99.90;;;;;;5049179;28;20152;-86
2023/03/25 05:52:50;;;;;;;10.02;3.13;;;8.20;99.90;;;;;;5048810;28;20058;-87
2023/03/25 05:55:18;;;;;;;9.27;3.03;;;8.20;99.90;;;;;;5064503;28;20123;-88
2023/03/25 05:57:44;;;;;;;9.07;3.08;;;8.10;99.90;;;;;;5068280;28;20037;-87
2023/03/25 06:00:22;;;;;;;7.00;2.85;;;8.20;99.90;;;;;;5065229;28;20114;-85
2023/03/25 06:02:49;;;;;;;12.32;3.00;;;8.20;99.90;;;;;;5065390;28;20048;-87
2023/03/25 06:05:22;;;;;;;13.10;2.92;;;8.20;99.90;;;;;;5067107;28;20044;-86
2023/03/25 06:07:48;;;;;;;8.57;3.13;;;8.20;99.90;;;;;;5067282;28;20503;-87
2023/03/25 06:10:21;;;;;;;10.88;2.88;;;8.20;99.90;;;;;;5049564;28;20119;-87
2023/03/25 06:12:48;;;;;;;9.80;2.78;;;8.20;99.90;;;;;;5066943;28;20403;-87
2023/03/25 06:15:27;;;;;;;8.50;2.45;;;8.20;99.90;;;;;;5066186;28;20041;-87
2023/03/25 06:17:54;;;;;;;9.15;2.60;;;8.20;99.90;;;;;;5047364;28;20064;-88
2023/03/25 06:20:20;;;;;;;10.60;2.88;;;8.20;99.90;;;;;;5068487;28;20394;-88
2023/03/25 06:22:48;;;;;;;12.63;3.25;;;8.20;99.90;;;;;;5070339;28;20045;-88
2023/03/25 06:25:17;;;;;;;11.05;3.03;;;8.20;99.90;;;;;;5072913;28;20044;-87
2023/03/25 06:27:44;;;;;;;11.25;2.88;;;8.20;99.90;;;;;;5052738;28;20376;-86
2023/03/25 06:30:13;;;;;;;8.73;3.28;;;8.20;99.90;;;;;;5071199;28;20044;-88
2023/03/25 06:32:38;;;;;;;13.80;3.35;;;8.20;99.90;;;;;;5038203;28;20049;-87
2023/03/25 06:35:08;;;;;;;11.95;3.30;;;8.20;99.90;;;;;;5061414;28;20040;-87
2023/03/25 06:37:34;;;;;;;10.20;3.00;;;8.20;99.90;;;;;;5066642;28;20115;-88
2023/03/25 06:40:00;;;;;;;11.10;3.80;;;8.20;99.90;;;;;;5072273;28;20063;-88
2023/03/25 06:42:27;;;;;;;9.63;2.92;;;8.20;99.90;;;;;;5071690;28;20036;-89
2023/03/25 06:44:54;;;;;;;10.18;2.60;;;8.20;99.90;;;;;;5070171;28;20079;-88
2023/03/25 06:47:20;;;;;;;9.07;2.50;;;8.20;99.90;;;;;;5069985;28;20053;-85
2023/03/25 06:49:46;;;;;;;13.85;2.63;;;8.30;99.90;;;;;;5054033;28;20044;-86
2023/03/25 06:52:11;;;;;;;9.10;2.08;;;8.30;99.90;;;;;;5052096;28;20098;-86
2023/03/25 06:54:37;;;;;;;9.15;2.45;;;8.50;99.90;;;;;;5061194;28;20140;-86
2023/03/25 06:57:03;;;;;;;16.50;2.63;;;8.30;99.90;;;;;;5045176;28;20052;-86
2023/03/25 06:59:29;;;;;;;9.40;2.30;;;9.10;99.90;;;;;;5072287;28;20048;-87
2023/03/25 07:01:55;;;;;;;9.15;2.35;;;8.50;99.90;;;;;;5071118;28;20075;-86
2023/03/25 07:04:21;;;;;;;12.32;2.60;;;8.50;99.90;;;;;;5054128;28;20044;-86
2023/03/25 07:06:46;;;;;;;9.25;2.60;;;9.30;99.90;;;;;;5069770;28;20113;-86
2023/03/25 07:09:12;;;;;;;14.23;3.40;;;8.60;99.90;;;;;;5059235;28;20040;-86
2023/03/25 07:11:37;;;;;;;15.23;3.97;;;8.70;99.90;;;;;;5056054;28;20079;-87
2023/03/25 07:14:03;;;;;;;9.20;2.65;;;8.80;99.90;;;;;;5067726;28;20052;-87
2023/03/25 07:16:29;;;;;;;11.85;2.70;;;8.90;99.90;;;;;;5069730;28;20052;-86
2023/03/25 07:18:55;;;;;;;17.40;3.03;;;9.00;99.90;;;;;;5054091;28;20040;-86
2023/03/25 07:21:21;;;;;;;12.20;2.55;;;9.70;99.90;;;;;;5053888;28;20040;-87
2023/03/25 07:23:47;;;;;;;15.52;2.80;;;9.20;99.90;;;;;;5057287;28;20033;-86
2023/03/25 07:26:13;;;;;;;14.07;3.00;;;9.30;99.90;;;;;;5068376;28;20137;-85
2023/03/25 07:28:39;;;;;;;16.80;2.70;;;9.50;99.90;;;;;;5053630;28;20044;-87
2023/03/25 07:31:07;;;;;;;13.07;2.70;;;9.50;99.90;;;;;;5052934;28;20045;-86
2023/03/25 07:33:33;;;;;;;16.38;3.20;;;9.40;99.90;;;;;;5043592;28;20059;-86
2023/03/25 07:35:58;;;;;;;10.18;3.20;;;9.30;99.90;;;;;;5072558;28;20383;-86
2023/03/25 07:38:24;;;;;;;12.65;3.92;;;9.10;99.90;;;;;;5054577;28;20139;-86
2023/03/25 07:40:50;;;;;;;13.75;2.80;;;9.10;99.90;;;;;;5073054;28;20055;-87
2023/03/25 07:43:15;;;;;;;14.02;3.10;;;8.90;99.90;;;;;;5057485;28;20544;-88
2023/03/25 07:45:41;;;;;;;18.13;3.40;;;8.80;99.90;;;;;;5056802;28;20050;-87
2023/03/25 07:48:12;;;;;;;14.02;3.33;;;8.60;99.90;;;;;;5079952;28;20659;-89
2023/03/25 07:50:38;;;;;;;11.20;2.72;;;8.50;99.90;;;;;;5071851;28;20496;-87
2023/03/25 07:53:03;;;;;;;16.83;3.33;;;8.50;99.90;;;;;;5057015;28;20063;-88
2023/03/25 07:55:29;;;;;;;13.02;2.78;;;8.50;99.90;;;;;;5058121;28;20115;-87
2023/03/25 07:57:57;;;;;;;11.57;2.85;;;8.50;99.90;;;;;;5075110;28;20135;-87
2023/03/25 08:00:23;;;;;;;17.52;2.80;;;8.50;99.90;;;;;;5060528;28;20059;-87
2023/03/25 08:02:48;;;;;;;8.32;2.20;;;8.60;99.90;;;;;;5058248;28;20044;-87
2023/03/25 08:05:20;;;;;;;12.48;2.97;;;8.60;99.90;;;;;;5058961;28;20043;-88
2023/03/25 08:07:49;;;;;;;12.65;2.22;;;8.60;99.90;;;;;;5055078;28;20119;-87
2023/03/25 08:10:15;;;;;;;15.40;2.50;;;8.60;99.90;;;;;;5038265;28;20054;-86
2023/03/25 08:12:43;;;;;;;12.15;2.78;;;8.60;99.90;;;;;;5055668;28;20044;-87
2023/03/25 08:15:10;;;;;;;11.57;2.40;;;8.60;99.90;;;;;;5036451;28;20099;-87
2023/03/25 08:17:37;;;;;;;15.60;2.40;;;8.50;99.90;;;;;;5049635;28;20043;-87
2023/03/25 08:20:04;;;;;;;14.40;2.42;;;8.50;99.90;;;;;;5060759;28;20047;-87
2023/03/25 08:22:31;;;;;;;11.77;2.55;;;8.40;99.90;;;;;;5074249;28;20483;-88
2023/03/25 08:24:57;;;;;;;16.75;2.90;;;8.40;99.90;;;;;;5056105;28;20127;-87
2023/03/25 08:27:22;;;;;;;12.57;2.58;;;8.40;99.90;;;;;;5074888;28;20062;-87
2023/03/25 08:29:53;;;;;;;17.50;3.17;;;8.50;99.90;;;;;;5072791;28;20040;-86
2023/03/25 08:32:29;;;;;;;14.77;3.88;;;8.60;99.90;;;;;;5070990;28;20517;-87
2023/03/25 08:34:55;;;;;;;13.57;3.17;;;8.70;99.90;;;;;;5054115;28;20040;-87
2023/03/25 08:37:21;;;;;;;18.10;2.60;;;8.90;99.90;;;;;;5053642;28;20124;-86
2023/03/25 08:39:49;;;;;;;8.60;2.28;;;8.90;99.90;;;;;;5070812;28;20032;-86
2023/03/25 08:42:15;;;;;;;13.70;2.72;;;9.00;99.90;;;;;;5053479;28;20087;-87
2023/03/25 08:44:40;;;;;;;12.93;2.67;;;9.10;99.90;;;;;;5069119;28;20113;-86
2023/03/25 08:47:09;;;;;;;11.63;2.72;;;9.20;99.90;;;;;;5069200;28;20401;-87
2023/03/25 08:49:34;;;;;;;18.38;2.70;;;9.30;99.90;;;;;;5070201;28;20161;-85
2023/03/25 08:52:00;;;;;;;17.63;2.80;;;9.50;99.90;;;;;;5070139;28;20147;-86
2023/03/25 08:54:27;;;;;;;12.43;2.70;;;9.50;99.90;;;;;;5047529;28;20052;-87
2023/03/25 08:56:53;;;;;;;15.50;2.92;;;9.60;99.90;;;;;;5060726;28;20407;-87
2023/03/25 08:59:22;;;;;;;10.75;3.20;;;10.30;99.90;;;;;;5056634;28;20079;-87
2023/03/25 09:01:47;;;;;;;13.90;3.38;;;9.80;99.90;;;;;;5053664;28;20120;-88
2023/03/25 09:04:16;;;;;;;14.30;3.22;;;9.90;99.90;;;;;;5070475;28;20074;-85
2023/03/25 09:06:42;;;;;;;11.70;3.55;;;9.80;99.90;;;;;;5071668;28;20378;-87
2023/03/25 09:09:10;;;;;;;16.15;2.65;;;9.80;99.90;;;;;;5087999;28;20035;-87
2023/03/25 09:11:36;;;;;;;11.98;2.58;;;9.80;99.90;;;;;;5069937;28;20094;-87
2023/03/25 09:14:03;;;;;;;15.52;3.55;;;9.80;99.90;;;;;;5069493;28;20044;-88
2023/03/25 09:16:30;;;;;;;13.68;2.70;;;9.80;99.90;;;;;;5053275;28;20524;-88
2023/03/25 09:18:56;;;;;;;12.05;3.25;;;9.70;99.90;;;;;;5069386;28;20062;-87
2023/03/25 09:21:22;;;;;;;11.23;2.60;;;9.50;99.90;;;;;;5086609;28;20051;-88
2023/03/25 09:23:48;;;;;;;15.07;3.05;;;9.50;99.90;;;;;;5068141;28;20044;-87
2023/03/25 09:26:13;;;;;;;11.00;3.10;;;9.50;99.90;;;;;;5068991;28;20075;-87
2023/03/25 09:28:39;;;;;;;9.35;2.55;;;9.70;99.90;;;;;;5068193;28;20328;-86
2023/03/25 09:31:05;;;;;;;17.75;2.65;;;9.90;99.90;;;;;;5051807;28;20479;-87
2023/03/25 09:33:31;;;;;;;14.13;2.70;;;10.10;99.90;;;;;;5051231;28;20076;-87
2023/03/25 09:35:59;;;;;;;15.00;2.85;;;10.20;99.90;;;;;;5053583;28;20044;-86
2023/03/25 09:38:24;;;;;;;19.20;3.70;;;10.20;99.90;;;;;;5085906;28;20119;-86
2023/03/25 09:40:53;;;;;;;9.52;2.28;;;10.20;99.90;;;;;;5067946;28;20155;-89
2023/03/25 09:43:50;;;;;;;14.07;2.72;;;10.20;99.90;;;;;;5053654;28;20146;-88
2023/03/25 09:46:16;;;;;;;9.10;2.45;;;10.20;99.90;;;;;;5067754;28;20126;-89
2023/03/25 09:48:45;;;;;;;13.52;2.92;;;10.00;99.90;;;;;;5053726;28;20040;-88
2023/03/25 09:51:19;;;;;;;11.00;2.50;;;9.90;99.90;;;;;;5086086;28;20044;-87
2023/03/25 09:54:01;;;;;;;10.70;2.63;;;9.60;99.90;;;;;;5070410;28;20106;-89
2023/03/25 09:56:32;;;;;;;11.32;2.22;;;9.80;99.90;;;;;;5056857;28;20044;-88
2023/03/25 09:59:04;;;;;;;15.20;2.72;;;9.60;99.90;;;;;;5073889;28;20079;-88
2023/03/25 10:01:58;;;;;;;14.00;2.40;;;9.60;99.90;;;;;;5053638;28;20475;-87
2023/03/25 10:05:05;;;;;;;10.77;2.28;;;9.70;99.90;;;;;;5054160;28;20102;-86
2023/03/25 10:07:57;;;;;;;9.55;2.03;;;9.70;99.90;;;;;;4938209;28;20193;-89
2023/03/25 10:10:26;;;;;;;10.32;2.42;;;9.70;99.90;;;;;;5068587;28;20051;-89
2023/03/25 10:13:04;;;;;;;9.43;2.03;;;9.80;99.90;;;;;;5069730;28;20067;-87
2023/03/25 10:15:43;;;;;;;11.95;2.50;;;9.90;99.90;;;;;;5069878;28;20082;-88
2023/03/25 10:18:50;;;;;;;8.52;2.08;;;10.70;99.90;;;;;;5069351;28;20044;-86
2023/03/25 10:21:31;;;;;;;8.13;2.03;;;10.10;99.90;;;;;;5070330;28;20850;-88
2023/03/25 10:24:19;;;;;;;11.05;2.22;;;10.30;99.90;;;;;;5048654;28;20045;-84
2023/03/25 10:26:57;;;;;;;10.93;1.92;;;10.40;99.90;;;;;;5065676;28;20181;-86
2023/03/25 10:29:38;;;;;;;11.57;2.28;;;10.40;99.90;;;;;;5045833;28;20040;-85
2023/03/25 10:32:18;;;;;;;10.57;2.25;;;10.40;99.90;;;;;;5085955;28;20043;-85
2023/03/25 10:34:50;;;;;;;10.40;1.77;;;10.40;99.90;;;;;;5067805;28;20062;-86
2023/03/25 10:37:27;;;;;;;12.15;2.08;;;10.40;99.90;;;;;;5051368;28;20522;-85
2023/03/25 10:39:57;;;;;;;12.68;2.38;;;10.30;99.90;;;;;;5048566;28;20051;-87
2023/03/25 10:42:38;;;;;;;9.63;2.20;;;10.20;99.90;;;;;;5067371;28;20047;-87
2023/03/25 10:45:13;;;;;;;14.93;2.72;;;10.10;99.90;;;;;;5051560;28;20048;-86
2023/03/25 10:47:41;;;;;;;11.10;1.92;;;10.20;99.90;;;;;;5065616;28;20044;-87
2023/03/25 10:50:14;;;;;;;12.80;2.50;;;10.20;99.90;;;;;;5049052;28;20056;-84
2023/03/25 10:52:41;;;;;;;11.63;2.10;;;10.50;99.90;;;;;;5052088;28;20105;-85
2023/03/25 10:55:21;;;;;;;14.45;2.00;;;11.20;99.90;;;;;;5070494;28;20040;-85
2023/03/25 10:57:48;;;;;;;10.20;2.40;;;11.50;99.90;;;;;;5066251;28;20047;-85
2023/03/25 11:00:16;;;;;;;18.23;2.85;;;11.10;99.90;;;;;;5053898;28;20044;-84
2023/03/25 11:02:42;;;;;;;9.60;1.77;;;11.20;99.90;;;;;;5052088;28;20056;-84
2023/03/25 11:05:08;;;;;;;10.73;1.92;;;11.30;99.90;;;;;;5051717;28;20059;-87
2023/03/25 11:07:40;;;;;;;10.35;2.25;;;11.50;99.90;;;;;;5069144;28;20455;-86
2023/03/25 11:10:25;;;;;;;9.90;2.80;;;11.30;99.90;;;;;;5055961;28;20427;-88
2023/03/25 11:12:52;;;;;;;7.63;1.90;;;11.40;99.90;;;;;;5055790;28;20048;-89
2023/03/25 11:15:22;;;;;;;10.68;2.25;;;11.60;99.90;;;;;;5071481;28;20046;-87
2023/03/25 11:18:00;;;;;;;8.57;2.30;;;11.60;99.90;;;;;;5071254;28;20077;-86
2023/03/25 11:20:39;;;;;;;10.50;2.30;;;11.50;99.90;;;;;;5055671;28;20105;-83
2023/03/25 11:23:36;;;;;;;13.45;1.98;;;11.50;99.90;;;;;;5071033;28;20092;-91
2023/03/25 11:26:16;;;;;;;11.50;2.25;;;12.10;99.90;;;;;;5075427;28;20474;-90
2023/03/25 11:28:52;;;;;;;12.32;2.28;;;11.30;99.90;;;;;;5046966;28;20064;-90
2023/03/25 11:31:29;;;;;;;7.70;2.13;;;11.70;99.90;;;;;;5059376;28;20056;-90
2023/03/25 11:34:06;;;;;;;6.78;1.80;;;11.20;99.90;;;;;;5059032;28;20040;-92
2023/03/25 11:36:39;;;;;;;10.70;3.17;;;11.10;99.90;;;;;;5059894;28;20048;-90
2023/03/25 11:39:23;;;;;;;10.40;2.15;;;11.10;99.90;;;;;;5057036;28;20113;-91
2023/03/25 11:41:49;;;;;;;4.53;1.85;;;11.20;99.90;;;;;;5056612;28;20103;-91
2023/03/25 11:44:31;;;;;;;10.35;2.00;;;11.70;99.90;;;;;;5060199;28;20040;-93
2023/03/25 11:47:08;;;;;;;11.65;2.35;;;11.30;99.90;;;;;;5038745;28;20479;-89
2023/03/25 11:49:41;;;;;;;9.20;2.03;;;11.30;99.90;;;;;;5052169;28;20044;-89
2023/03/25 11:52:29;;;;;;;9.65;2.05;;;11.30;99.90;;;;;;5058660;28;20478;-92
2023/03/25 11:55:00;;;;;;;12.20;2.42;;;11.30;99.90;;;;;;5059172;28;20048;-92
2023/03/25 11:57:39;;;;;;;9.07;2.58;;;11.40;99.90;;;;;;5058909;28;20398;-92
2023/03/25 12:00:32;;;;;;;14.30;2.63;;;11.40;99.90;;;;;;5059409;28;20055;-92
2023/03/25 12:03:03;;;;;;;9.05;2.08;;;11.30;99.90;;;;;;5054016;28;20059;-91
2023/03/25 12:05:41;;;;;;;9.90;2.20;;;11.90;99.90;;;;;;5054722;28;20068;-87
2023/03/25 12:08:28;;;;;;;10.25;3.13;;;11.70;99.90;;;;;;5045881;28;20043;-91
2023/03/25 12:11:06;;;;;;;9.13;2.10;;;11.40;99.90;;;;;;5038041;28;20135;-91
2023/03/25 12:14:07;;;;;;;8.60;2.15;;;11.40;99.90;;;;;;5044702;28;20155;-90
2023/03/25 12:17:06;;;;;;;10.65;2.97;;;11.60;99.90;;;;;;5045305;28;20043;-92
2023/03/25 12:20:21;;;;;;;8.65;2.30;;;11.50;99.90;;;;;;5009866;28;20052;-90
2023/03/25 12:23:14;;;;;;;9.18;2.08;;;11.50;99.90;;;;;;5040458;28;20083;-93
2023/03/25 12:25:56;;;;;;;9.40;2.55;;;11.40;99.90;;;;;;5052625;28;20052;-89
2023/03/25 12:28:48;;;;;;;6.85;2.40;;;11.30;99.90;;;;;;5057099;28;20122;-88
2023/03/25 12:31:20;;;;;;;11.15;2.25;;;11.20;99.90;;;;;;5055024;28;20048;-92
2023/03/25 12:34:08;;;;;;;11.18;3.13;;;11.00;99.90;;;;;;5072290;28;20055;-90
2023/03/25 12:36:52;;;;;;;10.57;2.10;;;11.00;99.90;;;;;;5068785;28;20060;-90
2023/03/25 12:39:45;;;;;;;7.03;1.70;;;11.10;99.90;;;;;;5052830;28;20056;-90
2023/03/25 12:42:25;;;;;;;12.82;1.83;;;11.20;99.90;;;;;;5065970;28;20538;-89
2023/03/25 12:45:26;;;;;;;6.47;2.15;;;11.40;99.90;;;;;;5052920;28;20350;-88
2023/03/25 12:48:08;;;;;;;6.18;2.00;;;11.70;99.90;;;;;;5053481;28;20141;-93
2023/03/25 12:51:04;;;;;;;7.38;2.03;;;11.70;99.90;;;;;;5053156;28;20049;-91
2023/03/25 12:53:53;;;;;;;8.13;2.00;;;11.70;99.90;;;;;;5053218;28;20083;-92
2023/03/25 12:56:31;;;;;;;7.40;2.15;;;11.60;99.90;;;;;;5052761;28;20071;-91
2023/03/25 12:59:01;;;;;;;9.20;1.90;;;11.60;99.90;;;;;;5051966;28;20055;-89
2023/03/25 13:01:44;;;;;;;7.07;1.95;;;11.50;99.90;;;;;;5053091;28;20131;-91
2023/03/25 13:04:23;;;;;;;8.23;1.77;;;11.40;99.90;;;;;;5072111;28;20053;-91
2023/03/25 13:07:03;;;;;;;6.90;2.22;;;11.40;99.90;;;;;;5070060;28;20053;-91
2023/03/25 13:09:53;;;;;;;11.65;1.73;;;11.50;99.90;;;;;;5070294;28;20699;-90
2023/03/25 13:12:34;;;;;;;8.00;2.00;;;11.80;99.90;;;;;;5056674;28;20052;-86
2023/03/25 13:15:31;;;;;;;10.88;2.33;;;11.90;99.90;;;;;;5065459;28;20045;-87
2023/03/25 13:18:31;;;;;;;10.65;2.13;;;12.00;99.90;;;;;;5047891;28;20045;-86